Nibulon 1 — UUAS4 — position and weather

sailwx.info

Track history (hours):
 
Tides and Currents Weather Stations Pressure Air Temp Water Temp Dewpoint Dewpoint Depression Visibility Wind Speed Wind Dir Waves Ship Positions

Nibulon 1

Last reported at 2015-May-23 16:19 UTC. Time now 2015-May-27 09:52 UTC.
Position N 47°58' E 035°07'.

Length 38 m; draft 2.6 m.

Type: Tug. MMSI: 272641000.

Date/timePositionNaut miles runAvg speedWind from/ knotsBaromVisibWave heightAir tempDewpointWater temp
2015-May-23 16:19N 47°58' E 035°07'5 6.2
2015-May-23 15:33N 47°53' E 035°06'1 1.2
2015-May-23 14:33N 47°52' E 035°05'2 2.3
2015-May-23 13:33N 47°50' E 035°07'1 1.1
2015-May-23 12:33N 47°50' E 035°06'2 2.4
2015-May-23 11:33N 47°53' E 035°06'1 1.3
2015-May-23 10:33N 47°52' E 035°05'4 4.2
2015-May-23 09:33N 47°48' E 035°09'2 1.5
2015-May-23 08:33N 47°47' E 035°09'4 4.3
2015-May-23 07:33N 47°43' E 035°08'5 4.8
2015-May-23 06:33N 47°38' E 035°05'130 3.6
2015-May-21 18:31N 46°33' E 032°20'6 6.7
2015-May-21 17:33N 46°32' E 032°11'6 6.2
2015-May-21 16:33N 46°32' E 032°02'6 6.0
2015-May-21 15:33N 46°34' E 031°53'6 5.8
2015-May-21 14:33N 46°36' E 031°45'6 5.9
2015-May-21 13:31N 46°35' E 031°36'12 1.6
2015-May-21 06:05N 46°35' E 031°19'4 1.4
2015-May-21 03:25N 46°34' E 031°14'4 1.5
2015-May-21 01:03N 46°35' E 031°19'6 0.6
2015-May-20 15:05N 46°36' E 031°28'3 4.2
2015-May-20 14:20N 46°35' E 031°33'4 4.7
2015-May-20 13:25N 46°35' E 031°39'4 4.8
2015-May-20 12:33N 46°36' E 031°45'5 5.0
2015-May-20 11:33N 46°35' E 031°52'5 5.0
2015-May-20 10:33N 46°33' E 031°59'6 4.9
2015-May-20 09:25N 46°32' E 032°07'134 3.0
2015-May-18 12:32N 47°34' E 035°01'3 3.3
2015-May-18 11:33N 47°37' E 035°04'3 3.5
2015-May-18 10:33N 47°40' E 035°07'4 4.1
2015-May-18 09:33N 47°44' E 035°09'4 4.2
2015-May-18 08:33N 47°48' E 035°10'1 0.8
2015-May-18 07:33N 47°49' E 035°09'4 4.2
2015-May-18 06:33N 47°52' E 035°05'1 0.8
2015-May-18 05:33N 47°53' E 035°06'1 0.7
2015-May-18 04:24N 47°52' E 035°05'4 5.1
2015-May-18 03:33N 47°48' E 035°09'4 3.8
2015-May-18 02:33N 47°51' E 035°05'1 1.2
2015-May-18 01:22N 47°52' E 035°06'1 0.8
2015-May-18 00:29N 47°53' E 035°06'0 0.0
2015-May-17 23:29N 47°53' E 035°06'0 0.0
2015-May-17 22:29N 47°53' E 035°06'0 0.0
2015-May-17 21:29N 47°53' E 035°06'0 0.1
2015-May-17 20:29N 47°53' E 035°06'0 0.1
2015-May-17 19:29N 47°53' E 035°06'0 0.0
2015-May-17 18:29N 47°53' E 035°06'0 0.0
2015-May-17 17:31N 47°53' E 035°06'1 0.6
2015-May-17 16:12N 47°52' E 035°06'0 0.0
2015-May-17 15:33N 47°52' E 035°06'0 0.0
2015-May-17 14:33N 47°52' E 035°06'1 0.9
2015-May-17 13:33N 47°53' E 035°06'4 4.1
2015-May-17 12:33N 47°57' E 035°07'  
Track history (hours):
 
Tides and Currents Weather Stations Pressure Air Temp Water Temp Dewpoint Dewpoint Depression Visibility Wind Speed Wind Dir Waves Ship Positions

Nibulon 1

Last reported at 2015-May-23 16:19 UTC. Time now 2015-May-27 09:52 UTC.
Position N 47°58' E 035°07'.

Length 38 m; draft 2.6 m.

Type: Tug. MMSI: 272641000.

Date/timePositionNaut miles runAvg speedWind from/ knotsBaromVisibWave heightAir tempDewpointWater temp
2015-May-23 16:19N 47°58' E 035°07'5 6.2
2015-May-23 15:33N 47°53' E 035°06'1 1.2
2015-May-23 14:33N 47°52' E 035°05'2 2.3
2015-May-23 13:33N 47°50' E 035°07'1 1.1
2015-May-23 12:33N 47°50' E 035°06'2 2.4
2015-May-23 11:33N 47°53' E 035°06'1 1.3
2015-May-23 10:33N 47°52' E 035°05'4 4.2
2015-May-23 09:33N 47°48' E 035°09'2 1.5
2015-May-23 08:33N 47°47' E 035°09'4 4.3
2015-May-23 07:33N 47°43' E 035°08'5 4.8
2015-May-23 06:33N 47°38' E 035°05'130 3.6
2015-May-21 18:31N 46°33' E 032°20'6 6.7
2015-May-21 17:33N 46°32' E 032°11'6 6.2
2015-May-21 16:33N 46°32' E 032°02'6 6.0
2015-May-21 15:33N 46°34' E 031°53'6 5.8
2015-May-21 14:33N 46°36' E 031°45'6 5.9
2015-May-21 13:31N 46°35' E 031°36'12 1.6
2015-May-21 06:05N 46°35' E 031°19'4 1.4
2015-May-21 03:25N 46°34' E 031°14'4 1.5
2015-May-21 01:03N 46°35' E 031°19'6 0.6
2015-May-20 15:05N 46°36' E 031°28'3 4.2
2015-May-20 14:20N 46°35' E 031°33'4 4.7
2015-May-20 13:25N 46°35' E 031°39'4 4.8
2015-May-20 12:33N 46°36' E 031°45'5 5.0
2015-May-20 11:33N 46°35' E 031°52'5 5.0
2015-May-20 10:33N 46°33' E 031°59'6 4.9
2015-May-20 09:25N 46°32' E 032°07'134 3.0
2015-May-18 12:32N 47°34' E 035°01'3 3.3
2015-May-18 11:33N 47°37' E 035°04'3 3.5
2015-May-18 10:33N 47°40' E 035°07'4 4.1
2015-May-18 09:33N 47°44' E 035°09'4 4.2
2015-May-18 08:33N 47°48' E 035°10'1 0.8
2015-May-18 07:33N 47°49' E 035°09'4 4.2
2015-May-18 06:33N 47°52' E 035°05'1 0.8
2015-May-18 05:33N 47°53' E 035°06'1 0.7
2015-May-18 04:24N 47°52' E 035°05'4 5.1
2015-May-18 03:33N 47°48' E 035°09'4 3.8
2015-May-18 02:33N 47°51' E 035°05'1 1.2
2015-May-18 01:22N 47°52' E 035°06'1 0.8
2015-May-18 00:29N 47°53' E 035°06'0 0.0
2015-May-17 23:29N 47°53' E 035°06'0 0.0
2015-May-17 22:29N 47°53' E 035°06'0 0.0
2015-May-17 21:29N 47°53' E 035°06'0 0.1
2015-May-17 20:29N 47°53' E 035°06'0 0.1
2015-May-17 19:29N 47°53' E 035°06'0 0.0
2015-May-17 18:29N 47°53' E 035°06'0 0.0
2015-May-17 17:31N 47°53' E 035°06'1 0.6
2015-May-17 16:12N 47°52' E 035°06'0 0.0
2015-May-17 15:33N 47°52' E 035°06'0 0.0
2015-May-17 14:33N 47°52' E 035°06'1 0.9
2015-May-17 13:33N 47°53' E 035°06'4 4.1
2015-May-17 12:33N 47°57' E 035°07'  

Dump ship's entire track history